createdAt,value
2018-11-28T00:00:03.322Z,2.64
2018-11-28T00:01:03.284Z,2.66
2018-11-28T00:02:03.271Z,2.64
2018-11-28T00:03:03.227Z,2.63
2018-11-28T00:04:03.199Z,2.67
2018-11-28T00:05:03.199Z,2.61
2018-11-28T00:06:03.167Z,2.67
2018-11-28T00:07:03.144Z,2.66
2018-11-28T00:08:03.071Z,2.73
2018-11-28T00:09:03.047Z,2.67
2018-11-28T00:10:03.046Z,2.81
2018-11-28T00:11:02.996Z,2.74
2018-11-28T00:12:02.946Z,2.73
2018-11-28T00:13:02.959Z,2.69
2018-11-28T00:14:02.861Z,2.64
2018-11-28T00:15:02.869Z,2.73
2018-11-28T00:16:02.855Z,2.70
2018-11-28T00:17:02.802Z,2.71
2018-11-28T00:18:02.850Z,2.76
2018-11-28T00:19:02.778Z,2.70
2018-11-28T00:20:02.757Z,2.79
2018-11-28T00:21:02.679Z,2.67
2018-11-28T00:22:02.625Z,2.69
2018-11-28T00:23:02.632Z,2.84
2018-11-28T00:24:02.625Z,2.77
2018-11-28T00:25:02.540Z,2.76
2018-11-28T00:26:02.542Z,2.74
2018-11-28T00:27:02.497Z,2.74
2018-11-28T00:28:02.456Z,2.69
2018-11-28T00:29:02.427Z,2.81
2018-11-28T00:30:02.397Z,2.82
2018-11-28T00:31:02.358Z,2.85
2018-11-28T00:32:02.335Z,2.81
2018-11-28T00:33:02.336Z,2.85
2018-11-28T00:34:02.252Z,2.84
2018-11-28T00:35:02.263Z,2.81
2018-11-28T00:36:02.214Z,2.79
2018-11-28T00:37:02.169Z,2.85
2018-11-28T00:38:02.152Z,2.84
2018-11-28T00:39:02.132Z,2.82
2018-11-28T00:40:02.113Z,2.84
2018-11-28T00:41:02.083Z,2.82
2018-11-28T00:42:02.036Z,2.87
2018-11-28T00:43:01.980Z,2.87
2018-11-28T00:44:01.950Z,2.87
2018-11-28T00:45:01.900Z,2.87
2018-11-28T00:46:01.931Z,2.89
2018-11-28T00:47:01.900Z,2.87
2018-11-28T00:48:01.820Z,2.89
2018-11-28T00:49:01.819Z,2.95
2018-11-28T00:50:01.816Z,2.84
2018-11-28T00:51:01.767Z,2.92
2018-11-28T00:52:01.736Z,2.87
2018-11-28T00:53:01.702Z,2.84
2018-11-28T00:54:01.666Z,2.88
2018-11-28T00:55:01.614Z,2.89
2018-11-28T00:56:01.634Z,2.85
2018-11-28T00:57:01.596Z,2.87
2018-11-28T00:58:01.519Z,2.88
2018-11-28T00:59:01.528Z,2.92
2018-11-28T01:00:01.448Z,2.89
2018-11-28T01:01:01.400Z,2.87
2018-11-28T01:02:01.425Z,2.89
2018-11-28T01:03:01.394Z,2.92
2018-11-28T01:04:01.354Z,2.87
2018-11-28T01:05:01.343Z,2.91
2018-11-28T01:06:01.358Z,2.97
2018-11-28T01:07:01.240Z,2.91
2018-11-28T01:08:01.236Z,2.91
2018-11-28T01:09:01.155Z,2.89
2018-11-28T01:10:01.158Z,2.84
2018-11-28T01:11:01.147Z,2.87
2018-11-28T01:12:01.097Z,2.87
2018-11-28T01:13:01.075Z,2.91
2018-11-28T01:14:01.082Z,2.94
2018-11-28T01:15:01.038Z,2.84
2018-11-28T01:16:00.959Z,2.91
2018-11-28T01:17:00.920Z,2.92
2018-11-28T01:18:00.959Z,2.97
2018-11-28T01:19:00.896Z,2.91
2018-11-28T01:20:00.860Z,2.94
2018-11-28T01:21:00.835Z,2.95
2018-11-28T01:22:00.803Z,2.92
2018-11-28T01:23:00.817Z,2.89
2018-11-28T01:24:00.743Z,2.97
2018-11-28T01:25:00.726Z,2.91
2018-11-28T01:26:00.652Z,2.89
2018-11-28T01:27:00.645Z,2.91
2018-11-28T01:28:00.566Z,2.85
2018-11-28T01:29:00.577Z,2.89
2018-11-28T01:30:00.538Z,2.84
2018-11-28T01:31:00.518Z,2.84
2018-11-28T01:32:00.468Z,2.89
2018-11-28T01:33:00.449Z,2.91
2018-11-28T01:34:00.392Z,2.89
2018-11-28T01:35:00.326Z,2.89
2018-11-28T01:36:00.316Z,2.85
2018-11-28T01:37:00.326Z,2.85
2018-11-28T01:38:00.284Z,2.92
2018-11-28T01:39:00.264Z,2.88
2018-11-28T01:40:00.235Z,2.91
2018-11-28T01:41:00.207Z,2.89
2018-11-28T01:42:00.210Z,2.94
2018-11-28T01:43:00.083Z,2.95
2018-11-28T01:44:00.082Z,2.87
2018-11-28T01:45:00.123Z,2.91
2018-11-28T01:46:00.007Z,2.87
2018-11-28T01:47:00.037Z,2.92
2018-11-28T01:47:59.942Z,2.91
2018-11-28T01:48:59.938Z,2.89
2018-11-28T01:49:59.896Z,2.92
2018-11-28T01:50:59.935Z,2.94
2018-11-28T01:51:59.835Z,2.91
2018-11-28T01:52:59.768Z,2.89
2018-11-28T01:53:59.803Z,2.89
2018-11-28T01:54:59.765Z,2.84
2018-11-28T01:55:59.745Z,2.89
2018-11-28T01:56:59.648Z,2.88
2018-11-28T01:57:59.656Z,2.88
2018-11-28T01:58:59.636Z,2.84
2018-11-28T01:59:59.579Z,2.91
2018-11-28T02:00:59.570Z,2.88
2018-11-28T02:01:59.532Z,2.81
2018-11-28T02:02:59.509Z,2.92
2018-11-28T02:03:59.454Z,2.91
2018-11-28T02:04:59.483Z,2.98
2018-11-28T02:05:59.425Z,2.95
2018-11-28T02:06:59.374Z,2.92
2018-11-28T02:07:59.321Z,2.92
2018-11-28T02:08:59.327Z,2.97
2018-11-28T02:09:59.275Z,2.79
2018-11-28T02:10:59.250Z,2.82
2018-11-28T02:11:59.224Z,2.95
2018-11-28T02:12:59.209Z,2.94
2018-11-28T02:13:59.165Z,2.88
2018-11-28T02:14:59.153Z,2.82
2018-11-28T02:15:59.103Z,2.82
2018-11-28T02:16:59.043Z,2.89
2018-11-28T02:17:59.040Z,2.95
2018-11-28T02:18:59.009Z,2.92
2018-11-28T02:19:58.929Z,2.94
2018-11-28T02:20:58.948Z,2.98
2018-11-28T02:21:58.899Z,2.89
2018-11-28T02:22:58.909Z,2.94
2018-11-28T02:23:58.858Z,2.94
2018-11-28T02:24:58.801Z,2.97
2018-11-28T02:25:58.781Z,3.00
2018-11-28T02:26:58.739Z,3.06
2018-11-28T02:27:58.710Z,3.06
2018-11-28T02:28:58.680Z,3.06
2018-11-28T02:29:58.656Z,3.00
2018-11-28T02:30:58.632Z,3.10
2018-11-28T02:31:58.599Z,3.09
2018-11-28T02:32:58.574Z,3.07
2018-11-28T02:33:58.499Z,3.09
2018-11-28T02:34:58.517Z,3.07
2018-11-28T02:35:58.428Z,3.10
2018-11-28T02:36:58.402Z,3.00
2018-11-28T02:37:58.431Z,3.06
2018-11-28T02:38:58.410Z,3.05
2018-11-28T02:39:58.394Z,3.00
2018-11-28T02:40:58.325Z,3.10
2018-11-28T02:41:58.318Z,2.98
2018-11-28T02:42:58.308Z,3.12
2018-11-28T02:43:58.219Z,3.07
2018-11-28T02:44:58.203Z,3.06
2018-11-28T02:45:58.142Z,3.09
2018-11-28T02:46:58.136Z,3.12
2018-11-28T02:47:58.135Z,3.10
2018-11-28T02:48:58.074Z,3.10
2018-11-28T02:49:58.016Z,3.13
2018-11-28T02:50:58.011Z,3.09
2018-11-28T02:51:57.983Z,3.13
2018-11-28T02:52:57.948Z,3.07
2018-11-28T02:53:57.932Z,3.15
2018-11-28T02:54:57.887Z,3.12
2018-11-28T02:55:57.893Z,3.12
2018-11-28T02:56:57.772Z,3.10
2018-11-28T02:57:57.775Z,3.15
2018-11-28T02:58:57.710Z,3.18
2018-11-28T02:59:57.697Z,3.16
2018-11-28T03:00:57.709Z,3.20
2018-11-28T03:01:57.680Z,3.13
2018-11-28T03:02:57.605Z,3.18
2018-11-28T03:03:57.555Z,3.20
2018-11-28T03:04:57.594Z,3.23
2018-11-28T03:05:57.524Z,3.28
2018-11-28T03:06:57.506Z,3.20
2018-11-28T03:07:57.427Z,3.20
2018-11-28T03:08:57.439Z,3.24
2018-11-28T03:09:57.431Z,3.25
2018-11-28T03:10:57.389Z,3.28
2018-11-28T03:11:57.358Z,3.27
2018-11-28T03:12:57.322Z,3.27
2018-11-28T03:13:57.335Z,3.24
2018-11-28T03:14:57.228Z,3.30
2018-11-28T03:15:57.199Z,3.30
2018-11-28T03:16:57.210Z,3.30
2018-11-28T03:17:57.203Z,3.30
2018-11-28T03:18:57.111Z,3.33
2018-11-28T03:19:57.089Z,3.28
2018-11-28T03:20:57.083Z,3.31
2018-11-28T03:23:29.731Z,3.31
2018-11-28T03:24:31.247Z,3.28
2018-11-28T03:25:30.514Z,3.30
2018-11-28T03:26:31.016Z,3.42
2018-11-28T03:27:30.971Z,3.47
2018-11-28T03:28:30.979Z,3.49
2018-11-28T03:29:30.562Z,3.47
2018-11-28T03:30:29.907Z,3.49
2018-11-28T03:31:30.375Z,3.42
2018-11-28T03:32:30.853Z,3.30
2018-11-28T03:33:30.295Z,3.43
2018-11-28T03:34:38.613Z,3.36
2018-11-28T03:36:34.235Z,3.30
2018-11-28T03:39:07.283Z,3.43
2018-11-28T03:40:15.475Z,3.28
2018-11-28T03:42:11.575Z,3.31
2018-11-28T03:43:20.018Z,3.30
2018-11-28T03:45:16.132Z,3.44
2018-11-28T03:48:19.951Z,3.53
2018-11-28T03:49:20.228Z,3.52
2018-11-28T03:50:20.804Z,3.49
2018-11-28T03:51:19.751Z,3.44
2018-11-28T03:52:19.382Z,3.44
2018-11-28T03:53:21.273Z,3.46
2018-11-28T03:54:20.311Z,3.46
2018-11-28T03:55:20.705Z,3.34
2018-11-28T03:56:20.768Z,3.47
2018-11-28T03:57:20.593Z,3.47
2018-11-28T03:58:20.594Z,3.50
2018-11-28T03:59:20.294Z,3.44
2018-11-28T04:00:19.978Z,3.46
2018-11-28T04:01:20.507Z,3.47
2018-11-28T04:02:20.974Z,3.42
2018-11-28T04:03:18.960Z,3.42
2018-11-28T04:04:28.786Z,3.50
2018-11-28T04:06:24.350Z,3.46
2018-11-28T04:07:33.364Z,3.53
2018-11-28T04:09:28.258Z,3.52
2018-11-28T04:10:37.155Z,3.50
2018-11-28T04:12:42.924Z,3.50
2018-11-28T04:13:41.180Z,3.60
2018-11-28T04:15:46.598Z,3.58
2018-11-28T04:16:45.489Z,3.58
2018-11-28T04:18:41.858Z,3.64
2018-11-28T04:19:42.190Z,3.65
2018-11-28T04:20:41.194Z,3.62
2018-11-28T04:21:41.702Z,3.67
2018-11-28T04:22:41.186Z,3.58
2018-11-28T04:23:41.712Z,3.65
2018-11-28T04:24:41.384Z,3.60
2018-11-28T04:25:41.039Z,3.58
2018-11-28T04:26:41.530Z,3.64
2018-11-28T04:27:41.283Z,3.67
2018-11-28T04:28:42.203Z,3.61
2018-11-28T04:29:41.419Z,3.64
2018-11-28T04:30:40.758Z,3.71
2018-11-28T04:31:41.723Z,3.70
2018-11-28T04:32:42.405Z,3.68
2018-11-28T04:33:49.922Z,3.75
2018-11-28T04:35:46.183Z,3.79
2018-11-28T04:36:45.611Z,3.86
2018-11-28T04:37:46.032Z,3.79
2018-11-28T04:38:45.873Z,3.78
2018-11-28T04:39:45.452Z,3.83
2018-11-28T04:40:45.361Z,3.88
2018-11-28T04:41:45.046Z,3.80
2018-11-28T04:42:44.874Z,3.79
2018-11-28T04:43:44.765Z,3.86
2018-11-28T04:44:45.420Z,3.76
2018-11-28T04:45:44.995Z,3.83
2018-11-28T04:46:44.626Z,3.83
2018-11-28T04:47:44.938Z,3.90
2018-11-28T04:48:44.911Z,3.90
2018-11-28T04:49:45.387Z,3.97
2018-11-28T04:50:44.903Z,3.92
2018-11-28T04:51:45.535Z,3.97
2018-11-28T04:52:45.304Z,3.89
2018-11-28T04:53:45.033Z,3.96
2018-11-28T04:54:45.099Z,3.94
2018-11-28T04:55:44.759Z,4.00
2018-11-28T04:56:44.922Z,3.98
2018-11-28T04:57:44.584Z,3.97
2018-11-28T04:58:44.813Z,4.01
2018-11-28T04:59:45.014Z,4.04
2018-11-28T05:00:44.508Z,3.98
2018-11-28T05:01:44.085Z,3.98
2018-11-28T05:02:43.943Z,3.97
2018-11-28T05:03:43.883Z,3.97
2018-11-28T05:04:43.919Z,4.03
2018-11-28T05:05:43.802Z,4.03
2018-11-28T05:06:43.757Z,4.12
2018-11-28T05:07:43.790Z,4.07
2018-11-28T05:08:43.746Z,4.04
2018-11-28T05:09:43.699Z,4.07
2018-11-28T05:10:43.653Z,4.07
2018-11-28T05:11:43.662Z,4.12
2018-11-28T05:12:43.565Z,4.06
2018-11-28T05:13:43.560Z,4.15
2018-11-28T05:14:43.564Z,4.01
2018-11-28T05:15:43.538Z,4.10
2018-11-28T05:16:43.481Z,4.06
2018-11-28T05:17:43.491Z,4.06
2018-11-28T05:18:43.427Z,4.00
2018-11-28T05:19:43.375Z,4.14
2018-11-28T05:20:43.375Z,4.08
2018-11-28T05:21:43.325Z,4.12
2018-11-28T05:22:43.295Z,4.01
2018-11-28T05:23:43.309Z,4.12
2018-11-28T05:24:43.270Z,4.03
2018-11-28T05:25:43.184Z,4.21
2018-11-28T05:26:43.175Z,4.14
2018-11-28T05:27:43.110Z,4.16
2018-11-28T05:28:43.150Z,4.10
2018-11-28T05:29:43.076Z,4.08
2018-11-28T05:30:43.020Z,4.15
2018-11-28T05:31:43.012Z,4.10
2018-11-28T05:32:44.018Z,4.14
2018-11-28T05:33:42.923Z,4.18
2018-11-28T05:34:42.972Z,4.08
2018-11-28T05:35:42.969Z,4.06
2018-11-28T05:36:42.949Z,4.18
2018-11-28T05:37:42.911Z,4.16
2018-11-28T05:38:42.904Z,4.07
2018-11-28T05:39:42.851Z,4.14
2018-11-28T05:40:42.777Z,4.08
2018-11-28T05:41:42.781Z,4.06
2018-11-28T05:42:42.680Z,4.06
2018-11-28T05:43:42.692Z,4.14
2018-11-28T05:44:42.650Z,4.18
2018-11-28T05:45:42.600Z,4.21
2018-11-28T05:46:42.602Z,4.18
2018-11-28T05:47:42.597Z,4.18
2018-11-28T05:48:42.519Z,4.22
2018-11-28T05:49:42.645Z,4.18
2018-11-28T05:50:42.551Z,4.21
2018-11-28T05:51:42.467Z,4.19
2018-11-28T05:52:42.382Z,4.24
2018-11-28T05:53:42.389Z,4.19
2018-11-28T05:54:42.371Z,4.21
2018-11-28T05:55:42.310Z,4.24
2018-11-28T05:56:42.277Z,4.21
2018-11-28T05:57:42.254Z,4.21
2018-11-28T05:58:42.209Z,4.22
2018-11-28T05:59:42.186Z,4.26
2018-11-28T06:00:42.151Z,4.22
2018-11-28T06:01:42.280Z,4.25
2018-11-28T06:02:42.085Z,4.28
2018-11-28T06:03:42.108Z,4.28
2018-11-28T06:04:42.032Z,4.28
2018-11-28T06:05:41.983Z,4.29
2018-11-28T06:06:41.952Z,4.26
2018-11-28T06:07:43.817Z,4.34
2018-11-28T06:08:41.902Z,4.29
2018-11-28T06:09:41.897Z,4.29
2018-11-28T06:10:41.855Z,4.26
2018-11-28T06:11:41.837Z,4.34
2018-11-28T06:12:41.799Z,4.33
2018-11-28T06:13:41.819Z,4.32
2018-11-28T06:14:41.710Z,4.28
2018-11-28T06:15:41.663Z,4.29
2018-11-28T06:16:41.678Z,4.28
2018-11-28T06:17:41.611Z,4.32
2018-11-28T06:18:41.575Z,4.34
2018-11-28T06:19:41.544Z,4.28
2018-11-28T06:20:41.555Z,4.37
2018-11-28T06:21:41.487Z,4.29
2018-11-28T06:22:41.496Z,4.36
2018-11-28T06:23:41.429Z,4.34
2018-11-28T06:24:41.455Z,4.34
2018-11-28T06:25:41.396Z,4.36
2018-11-28T06:26:41.366Z,4.44
2018-11-28T06:27:41.380Z,4.46
2018-11-28T06:28:41.282Z,4.34
2018-11-28T06:29:41.239Z,4.44
2018-11-28T06:30:41.205Z,4.39
2018-11-28T06:31:41.286Z,4.33
2018-11-28T06:32:41.870Z,4.42
2018-11-28T06:33:41.549Z,4.44
2018-11-28T06:34:43.021Z,4.40
2018-11-28T06:35:41.410Z,4.43
2018-11-28T06:36:41.669Z,4.47
2018-11-28T06:37:41.885Z,4.47
2018-11-28T06:38:42.161Z,4.50
2018-11-28T06:39:42.279Z,4.47
2018-11-28T06:40:41.787Z,4.52
2018-11-28T06:41:41.465Z,4.54
2018-11-28T06:42:41.591Z,4.55
2018-11-28T06:43:42.570Z,4.61
2018-11-28T06:44:43.164Z,4.52
2018-11-28T06:45:41.354Z,4.54
2018-11-28T06:46:42.054Z,4.55
2018-11-28T06:47:41.065Z,4.65
2018-11-28T06:48:41.369Z,4.62
2018-11-28T06:49:41.425Z,4.59
2018-11-28T06:50:41.590Z,4.62
2018-11-28T06:51:41.230Z,4.61
2018-11-28T06:52:41.738Z,4.64
2018-11-28T06:53:41.683Z,4.55
2018-11-28T06:54:41.681Z,4.69
2018-11-28T06:55:41.350Z,4.65
2018-11-28T06:56:40.725Z,4.76
2018-11-28T06:57:41.046Z,4.76
2018-11-28T06:58:41.673Z,4.69
2018-11-28T06:59:41.370Z,4.75
2018-11-28T07:00:41.186Z,4.77
2018-11-28T07:01:40.967Z,4.67
2018-11-28T07:02:41.033Z,4.77
2018-11-28T07:03:40.609Z,4.65
2018-11-28T07:04:41.425Z,4.70
2018-11-28T07:05:41.333Z,4.69
2018-11-28T07:06:40.704Z,4.76
2018-11-28T07:07:41.076Z,4.70
2018-11-28T07:08:41.431Z,4.75
2018-11-28T07:09:41.271Z,4.79
2018-11-28T07:10:41.345Z,4.79
2018-11-28T07:11:43.051Z,4.80
2018-11-28T07:12:41.483Z,4.75
2018-11-28T07:13:41.081Z,4.80
2018-11-28T07:14:43.360Z,4.80
2018-11-28T07:15:43.331Z,4.80
2018-11-28T07:16:56.505Z,4.88
2018-11-28T07:18:00.539Z,4.84
2018-11-28T07:21:02.052Z,4.88
2018-11-28T07:22:03.544Z,4.83
2018-11-28T07:23:04.150Z,4.86
2018-11-28T07:24:14.537Z,4.94
2018-11-28T07:27:44.978Z,4.95
2018-11-28T07:28:43.832Z,4.95
2018-11-28T07:29:43.249Z,5.01
2018-11-28T07:30:43.801Z,4.95
2018-11-28T07:33:34.011Z,5.01
2018-11-28T07:34:19.396Z,4.99
2018-11-28T07:39:09.786Z,4.94
2018-11-28T07:40:14.165Z,5.05
2018-11-28T07:45:45.414Z,5.14
2018-11-28T07:46:31.705Z,5.13
2018-11-28T07:47:29.114Z,5.12
2018-11-28T07:48:44.581Z,5.14
2018-11-28T07:49:30.252Z,5.13
2018-11-28T07:50:29.951Z,5.13
2018-11-28T07:51:31.616Z,5.13
2018-11-28T07:52:29.562Z,5.10
2018-11-28T07:53:29.100Z,5.09
2018-11-28T07:54:41.684Z,5.14
2018-11-28T07:55:33.199Z,5.17
2018-11-28T07:56:34.678Z,5.16
2018-11-28T07:57:29.184Z,5.13
2018-11-28T07:58:52.035Z,5.17
2018-11-28T08:01:21.236Z,5.12
2018-11-28T08:05:23.044Z,5.12
2018-11-28T08:06:23.339Z,5.23
2018-11-28T08:07:22.583Z,5.17
2018-11-28T08:08:23.375Z,5.19
2018-11-28T08:09:22.875Z,5.19
2018-11-28T08:10:23.085Z,5.23
2018-11-28T08:11:22.514Z,5.27
2018-11-28T08:12:23.135Z,5.25
2018-11-28T08:13:22.479Z,5.34
2018-11-28T08:14:22.568Z,5.30
2018-11-28T08:15:22.598Z,5.25
2018-11-28T08:16:22.722Z,5.25
2018-11-28T08:17:22.511Z,5.31
2018-11-28T08:18:22.829Z,5.31
2018-11-28T08:19:24.161Z,5.31
2018-11-28T08:20:23.273Z,5.27
2018-11-28T08:21:23.093Z,5.32
2018-11-28T08:22:23.398Z,5.37
2018-11-28T08:23:22.788Z,5.38
2018-11-28T08:24:22.871Z,5.38
2018-11-28T08:25:27.501Z,5.37
2018-11-28T08:26:23.662Z,5.41
2018-11-28T08:27:23.240Z,5.45
2018-11-28T08:28:22.877Z,5.41
2018-11-28T08:29:21.866Z,5.46
2018-11-28T08:30:22.814Z,5.49
2018-11-28T08:31:21.536Z,5.45
2018-11-28T08:32:22.055Z,5.46
2018-11-28T08:33:21.879Z,5.43
2018-11-28T08:34:21.608Z,5.53
2018-11-28T08:35:21.727Z,5.49
2018-11-28T08:36:22.636Z,5.53
2018-11-28T08:37:21.065Z,5.53
2018-11-28T08:38:20.980Z,5.56
2018-11-28T08:39:21.060Z,5.59
2018-11-28T08:40:20.959Z,5.57
2018-11-28T08:41:20.935Z,5.63
2018-11-28T08:42:20.877Z,5.60
2018-11-28T08:43:20.900Z,5.59
2018-11-28T08:44:20.844Z,5.64
2018-11-28T08:45:20.948Z,5.59
2018-11-28T08:46:20.876Z,5.68
2018-11-28T08:47:20.700Z,5.70
2018-11-28T08:48:20.700Z,5.73
2018-11-28T08:49:20.675Z,5.77
2018-11-28T08:50:20.631Z,5.73
2018-11-28T08:51:20.707Z,5.78
2018-11-28T08:52:20.584Z,5.78
2018-11-28T08:53:20.607Z,5.82
2018-11-28T08:54:20.640Z,5.78
2018-11-28T08:55:20.493Z,5.78
2018-11-28T08:56:20.462Z,5.82
2018-11-28T08:57:20.459Z,5.81
2018-11-28T08:58:20.440Z,5.78
2018-11-28T08:59:20.391Z,5.78
2018-11-28T09:00:20.347Z,5.81
2018-11-28T09:01:20.324Z,5.75
2018-11-28T09:02:20.337Z,5.82
2018-11-28T09:03:20.261Z,5.86
2018-11-28T09:04:20.244Z,5.88
2018-11-28T09:05:20.319Z,5.89
2018-11-28T09:06:20.159Z,5.81
2018-11-28T09:07:20.146Z,5.86
2018-11-28T09:08:20.132Z,5.86
2018-11-28T09:09:20.078Z,5.89
2018-11-28T09:10:20.057Z,5.93
2018-11-28T09:11:19.986Z,5.96
2018-11-28T09:12:19.992Z,6.01
2018-11-28T09:13:19.917Z,5.93
2018-11-28T09:14:19.952Z,5.95
2018-11-28T09:15:19.925Z,5.96
2018-11-28T09:16:19.899Z,5.98
2018-11-28T09:17:19.856Z,6.03
2018-11-28T09:18:19.832Z,6.04
2018-11-28T09:19:19.739Z,6.04
2018-11-28T09:20:19.890Z,6.10
2018-11-28T09:21:19.727Z,6.10
2018-11-28T09:23:51.459Z,6.09
2018-11-28T09:24:51.362Z,6.22
2018-11-28T09:25:51.355Z,6.19
2018-11-28T09:26:51.312Z,6.22
2018-11-28T09:27:51.361Z,6.21
2018-11-28T09:28:51.247Z,6.32
2018-11-28T09:29:51.281Z,6.28
2018-11-28T09:30:51.181Z,6.21
2018-11-28T09:31:51.191Z,6.29
2018-11-28T09:32:51.136Z,6.30
2018-11-28T09:33:51.200Z,6.29
2018-11-28T09:34:51.070Z,6.28
2018-11-28T09:35:51.112Z,6.29
2018-11-28T09:36:51.011Z,6.32
2018-11-28T09:37:50.983Z,6.35
2018-11-28T09:38:51.037Z,6.38
2018-11-28T09:39:50.922Z,6.40
2018-11-28T09:40:50.946Z,6.33
2018-11-28T09:41:50.868Z,6.44
2018-11-28T09:42:50.833Z,6.40
2018-11-28T09:43:50.805Z,6.40
2018-11-28T09:44:50.872Z,6.50
2018-11-28T09:45:50.742Z,6.35
2018-11-28T09:46:50.781Z,6.44
2018-11-28T09:47:50.793Z,6.53
2018-11-28T09:48:50.659Z,6.53
2018-11-28T09:49:50.703Z,6.56
2018-11-28T09:50:50.601Z,6.43
2018-11-28T09:51:50.614Z,6.56
2018-11-28T09:52:50.540Z,6.48
2018-11-28T09:53:50.531Z,6.47
2018-11-28T09:54:50.484Z,6.51
2018-11-28T09:55:50.554Z,6.58
2018-11-28T09:56:50.426Z,6.54
2018-11-28T09:57:50.452Z,6.54
2018-11-28T09:58:50.361Z,6.58
2018-11-28T09:59:50.362Z,6.56
2018-11-28T10:00:50.305Z,6.56
2018-11-28T10:01:50.380Z,6.61
2018-11-28T10:02:50.255Z,6.63
2018-11-28T10:03:50.213Z,6.56
2018-11-28T10:04:50.294Z,6.69
2018-11-28T10:05:50.153Z,6.62
2018-11-28T10:06:50.213Z,6.68
2018-11-28T10:07:50.102Z,6.61
2018-11-28T10:08:50.075Z,6.62
2018-11-28T10:09:50.051Z,6.63
2018-11-28T10:10:50.031Z,6.59
2018-11-28T10:11:49.983Z,6.59
2018-11-28T10:12:50.043Z,6.63
2018-11-28T10:13:49.939Z,6.68
2018-11-28T10:14:49.962Z,6.63
2018-11-28T10:15:49.871Z,6.68
2018-11-28T10:16:50.498Z,6.61
2018-11-28T10:17:49.814Z,6.62
2018-11-28T10:18:49.781Z,6.61
2018-11-28T10:19:49.752Z,6.77
2018-11-28T10:20:49.792Z,6.65
2018-11-28T10:21:49.697Z,6.68
2018-11-28T10:22:49.714Z,6.71
2018-11-28T10:23:49.711Z,6.79
2018-11-28T10:24:49.603Z,6.84
2018-11-28T10:25:49.638Z,6.73
2018-11-28T10:26:49.542Z,6.73
2018-11-28T10:27:49.656Z,6.76
2018-11-28T10:28:49.491Z,6.89
2018-11-28T10:29:49.552Z,6.87
2018-11-28T10:30:49.442Z,6.84
2018-11-28T10:31:49.463Z,6.95
2018-11-28T10:32:49.372Z,6.94
2018-11-28T10:33:49.373Z,7.01
2018-11-28T10:34:49.324Z,6.98
2018-11-28T10:35:49.391Z,7.09
2018-11-28T10:36:49.262Z,7.04
2018-11-28T10:37:49.307Z,6.99
2018-11-28T10:38:49.202Z,7.04
2018-11-28T10:39:49.173Z,7.04
2018-11-28T10:40:49.149Z,7.12
2018-11-28T10:41:49.222Z,7.13
2018-11-28T10:42:49.081Z,7.12
2018-11-28T10:43:49.143Z,7.07
2018-11-28T10:44:49.142Z,7.20
2018-11-28T10:45:49.001Z,7.17
2018-11-28T10:46:49.052Z,7.22
2018-11-28T10:47:48.936Z,7.24
2018-11-28T10:48:48.973Z,7.23
2018-11-28T10:49:48.974Z,7.17
2018-11-28T10:50:48.855Z,7.24
2018-11-28T10:51:50.379Z,7.27
2018-11-28T10:52:48.807Z,7.26
2018-11-28T10:53:48.803Z,7.31
2018-11-28T10:54:48.742Z,7.37
2018-11-28T10:55:48.813Z,7.37
2018-11-28T10:56:48.683Z,7.40
2018-11-28T10:57:48.723Z,7.38
2018-11-28T10:58:48.633Z,7.52
2018-11-28T10:59:48.673Z,7.60
2018-11-28T11:00:48.578Z,7.50
2018-11-28T11:01:48.655Z,7.50
2018-11-28T11:02:49.079Z,7.50
2018-11-28T11:03:48.573Z,7.53
2018-11-28T11:04:48.467Z,7.55
2018-11-28T11:05:48.439Z,7.55
2018-11-28T11:06:48.487Z,7.55
2018-11-28T11:07:48.372Z,7.52
2018-11-28T11:08:48.390Z,7.40
2018-11-28T11:09:48.322Z,7.53
2018-11-28T11:10:48.294Z,7.53
2018-11-28T11:11:48.268Z,7.52
2018-11-28T11:12:48.312Z,7.58
2018-11-28T11:13:48.201Z,7.75
2018-11-28T11:14:48.232Z,7.69
2018-11-28T11:15:48.154Z,7.69
2018-11-28T11:16:48.254Z,7.66
2018-11-28T11:17:48.092Z,7.67
2018-11-28T11:18:48.156Z,7.75
2018-11-28T11:19:48.032Z,7.87
2018-11-28T11:20:48.065Z,7.90
2018-11-28T11:21:47.986Z,8.02
2018-11-28T11:22:47.982Z,8.07
2018-11-28T11:23:47.924Z,8.08
2018-11-28T11:24:48.004Z,8.11
2018-11-28T11:25:47.881Z,8.15
2018-11-28T11:26:47.843Z,8.07
2018-11-28T11:27:47.812Z,8.12
2018-11-28T11:28:47.813Z,8.12
2018-11-28T11:29:47.764Z,8.08
2018-11-28T11:30:47.846Z,8.10
2018-11-28T11:31:47.709Z,8.03
2018-11-28T11:32:47.760Z,8.11
2018-11-28T11:33:47.660Z,8.08
2018-11-28T11:34:47.653Z,8.07
2018-11-28T11:35:47.599Z,8.03
2018-11-28T11:36:47.661Z,8.14
2018-11-28T11:37:47.571Z,8.08
2018-11-28T11:38:47.514Z,8.14
2018-11-28T11:39:47.593Z,8.15
2018-11-28T11:40:47.451Z,8.08
2018-11-28T11:41:47.495Z,8.12
2018-11-28T11:42:47.523Z,8.08
2018-11-28T11:43:47.381Z,8.10
2018-11-28T11:44:47.412Z,8.12
2018-11-28T11:45:47.353Z,8.20
2018-11-28T11:46:48.105Z,8.17
2018-11-28T11:47:47.264Z,8.10
2018-11-28T11:48:47.359Z,8.11
2018-11-28T11:49:47.212Z,8.12
2018-11-28T11:50:47.251Z,8.15
2018-11-28T11:51:47.154Z,8.26
2018-11-28T11:52:47.231Z,8.25
2018-11-28T11:53:47.097Z,8.22
2018-11-28T11:54:47.183Z,8.22
2018-11-28T11:55:47.042Z,8.22
2018-11-28T11:56:47.115Z,8.26
2018-11-28T11:57:46.986Z,8.28
2018-11-28T11:58:46.971Z,8.17
2018-11-28T11:59:47.021Z,8.21
2018-11-28T12:00:46.922Z,8.22
2018-11-28T12:01:46.923Z,8.20
2018-11-28T12:02:46.856Z,8.21
2018-11-28T12:03:46.830Z,8.25
2018-11-28T12:04:46.793Z,8.28
2018-11-28T12:05:46.852Z,8.28
2018-11-28T12:06:46.752Z,8.28
2018-11-28T12:07:46.768Z,8.32
2018-11-28T12:08:46.693Z,8.36
2018-11-28T12:09:46.778Z,8.47
2018-11-28T12:10:46.631Z,8.44
2018-11-28T12:11:46.683Z,8.51
2018-11-28T12:12:51.708Z,8.54
2018-11-28T12:13:46.591Z,8.39
2018-11-28T12:14:46.528Z,8.50
2018-11-28T12:15:46.508Z,8.47
2018-11-28T12:16:46.509Z,8.47
2018-11-28T12:17:46.524Z,8.54
2018-11-28T12:18:46.421Z,8.47
2018-11-28T12:19:46.382Z,8.40
2018-11-28T12:20:46.441Z,8.40
2018-11-28T12:21:46.344Z,8.37
2018-11-28T12:22:46.359Z,8.35
2018-11-28T12:23:46.298Z,8.39
2018-11-28T12:24:46.254Z,8.42
2018-11-28T12:25:46.240Z,8.35
2018-11-28T12:26:46.287Z,8.28
2018-11-28T12:27:46.185Z,8.28
2018-11-28T12:28:46.193Z,8.25
2018-11-28T12:29:46.202Z,8.35
2018-11-28T12:30:46.083Z,8.30
2018-11-28T12:31:46.111Z,8.29
2018-11-28T12:32:46.021Z,8.30
2018-11-28T12:33:46.023Z,8.36
2018-11-28T12:34:50.385Z,8.22
2018-11-28T12:35:46.127Z,8.28
2018-11-28T12:36:45.989Z,8.36
2018-11-28T12:37:46.040Z,8.22
2018-11-28T12:38:45.891Z,8.17
2018-11-28T12:39:45.852Z,8.22
2018-11-28T12:40:45.812Z,8.26
2018-11-28T12:41:45.783Z,8.26
2018-11-28T12:42:45.752Z,8.25
2018-11-28T12:43:45.780Z,8.26
2018-11-28T12:44:45.701Z,8.25
2018-11-28T12:45:45.674Z,8.25
2018-11-28T12:46:46.720Z,8.32
2018-11-28T12:47:45.622Z,8.29
2018-11-28T12:48:45.610Z,8.33
2018-11-28T12:49:45.559Z,8.42
2018-11-28T12:50:45.535Z,8.35
2018-11-28T12:51:45.502Z,8.29
2018-11-28T12:52:45.541Z,8.33
2018-11-28T12:53:45.448Z,8.28
2018-11-28T12:54:45.449Z,8.26
2018-11-28T12:55:45.392Z,8.36
2018-11-28T12:56:45.461Z,8.36
2018-11-28T12:57:45.347Z,8.39
2018-11-28T12:58:45.386Z,8.42
2018-11-28T12:59:45.292Z,8.39
2018-11-28T13:00:45.294Z,8.44
2018-11-28T13:01:45.230Z,8.45
2018-11-28T13:02:45.318Z,8.44
2018-11-28T13:03:45.179Z,8.39
2018-11-28T13:04:45.210Z,8.42
2018-11-28T13:05:45.127Z,8.42
2018-11-28T13:06:45.089Z,8.42
2018-11-28T13:07:45.070Z,8.40
2018-11-28T13:08:45.142Z,8.39
2018-11-28T13:09:45.010Z,8.35
2018-11-28T13:10:45.049Z,8.37
2018-11-28T13:11:44.961Z,8.36
2018-11-28T13:12:44.963Z,8.22
2018-11-28T13:13:44.897Z,8.21
2018-11-28T13:14:44.984Z,8.22
2018-11-28T13:15:44.879Z,8.18
2018-11-28T13:16:44.891Z,8.22
2018-11-28T13:17:44.790Z,8.22
2018-11-28T13:18:44.799Z,8.26
2018-11-28T13:19:44.745Z,8.28
2018-11-28T13:20:44.811Z,8.25
2018-11-28T13:21:44.687Z,8.30
2018-11-28T13:22:44.651Z,8.25
2018-11-28T13:23:44.740Z,8.29
2018-11-28T13:24:44.599Z,8.28
2018-11-28T13:25:44.650Z,8.32
2018-11-28T13:26:44.537Z,8.32
2018-11-28T13:27:44.518Z,8.40
2018-11-28T13:28:44.486Z,8.37
2018-11-28T13:29:44.575Z,8.37
2018-11-28T13:30:44.499Z,8.30
2018-11-28T13:31:44.479Z,8.35
2018-11-28T13:32:44.378Z,8.22
2018-11-28T13:33:44.396Z,8.39
2018-11-28T13:34:44.328Z,8.37
2018-11-28T13:35:44.414Z,8.35
2018-11-28T13:36:44.272Z,8.32
2018-11-28T13:37:44.320Z,8.37
2018-11-28T13:38:44.209Z,8.37
2018-11-28T13:39:44.220Z,8.37
2018-11-28T13:40:44.165Z,8.32
2018-11-28T13:41:44.139Z,8.29
2018-11-28T13:42:44.107Z,8.32
2018-11-28T13:43:44.082Z,8.42
2018-11-28T13:44:44.179Z,8.35
2018-11-28T13:45:44.030Z,8.35
2018-11-28T13:46:44.090Z,8.35
2018-11-28T13:47:43.959Z,8.36
2018-11-28T13:48:43.938Z,8.35
2018-11-28T13:49:43.908Z,8.25
2018-11-28T13:50:43.898Z,8.36
2018-11-28T13:51:43.847Z,8.35
2018-11-28T13:52:43.907Z,8.28
2018-11-28T13:53:43.816Z,8.29